Partly Cloudy Current Weather (METAR) For Antalya Airport

All times on the weather descriptions are local

Observed at 17:50 - (39 mins ago)

Partly Cloudy

13°C

Partly Cloudy
Clouds: Scattered Clouds at 3,000ft
Wind: 360° at 03 knots
Visibility: Greater than 10km
QNH: 1018
Dew Point: 9°C
Runway in Use: Likely Runways 36L/C/R

Sunrise Today: 07:04
Sunset Today: 16:45

Forecast Weather (TAF) For Antalya Airport

Issued at 02:00 - (9 days 7 hrs ago)


Runway in Use: Unable to determine, wind is clam

Forecast valid until 02:00 on Wednesday

METAR/TAF RAW METAR / TAF

LTAI 211550Z 36003KT 9999 SCT030 13/09 Q1018 NOSIG

Weather Widget

Put weather from any of our airports on your website with our weather widget.

Find Another Search

Airport Search


Please Wait Please Wait - Loading
Close
Close

Login

Username:

Password:

Remember Me:

Remember me on this computer

Forgotten your password? Get a reset password sent to your registered e-mail address

Close

User Private Message

Subject:

Message: